Flight Track Log - Related Links

Times and Time Zones

All times are in EDT time to prevent confusion due to time zone crossing. See the SWA714 flight status page for this flight to view local times or setup timezone preferences in your user account.

Time Position Orientation Groundspeed Altitude Reporting Facility
EDT Latitude Longitude Course Direction KTS MPH feet Rate Location/Type
Wed 06:03:14 PM 32.8833 -96.9000 312° West 198 228 3,700  Level Dallas / Fort Worth TRACON
Wed 06:04:15 PM 32.9333 -96.9667 312° West 238 274 6,400 2,678 Climbing Dallas / Fort Worth TRACON
Wed 06:05:15 PM 32.9833 -97.0167 320° Northwest 287 330 9,100 2,191 Climbing Dallas / Fort Worth TRACON
Wed 06:06:10 PM 33.0333 -97.0833 312° West 317 365 10,600 1,918 Climbing Dallas / Fort Worth TRACON
Wed 06:07:17 PM 33.0167 -97.2000 260° West 359 413 13,000 2,514 Climbing Dallas / Fort Worth TRACON
Wed 06:07:55 PM 33.0150 -97.2772 269° West 370 426 15,000 2,449 Climbing Fort Worth Center
Wed 06:08:55 PM 33.0067 -97.4061 266° West 365 420 17,000 1,800 Climbing Fort Worth Center
Wed 06:09:55 PM 32.9961 -97.5200 264° West 380 437 18,600 2,050 Climbing Fort Worth Center
Wed 06:10:55 PM 32.9875 -97.6414 265° West 380 437 21,100 2,500 Climbing Fort Worth Center
Wed 06:11:55 PM 32.9853 -97.7825 269° West 380 437 23,600 2,650 Climbing Fort Worth Center
Wed 06:12:55 PM 33.0119 -97.9114 284° West 393 452 26,400 2,450 Climbing Fort Worth Center
Wed 06:13:55 PM 33.0383 -98.0378 284° West 393 452 28,500 2,350 Climbing Fort Worth Center
Wed 06:14:55 PM 33.0608 -98.1594 282° West 388 447 31,100 2,200 Climbing Fort Worth Center
Wed 06:15:55 PM 33.0850 -98.2786 284° West 377 434 32,900 1,700 Climbing Fort Worth Center
Wed 06:16:55 PM 33.1050 -98.3956 282° West 366 421 34,500 1,537 Climbing Fort Worth Center
Wed 06:17:56 PM 33.1314 -98.4950 288° West 357 411 36,000 750 Climbing Fort Worth Center
Wed 06:18:55 PM 33.1428 -98.6067 277° West 351 404 36,000  Level Fort Worth Center
Wed 06:19:55 PM 33.1625 -98.7261 281° West 356 410 36,000  Level Fort Worth Center
Wed 06:20:55 PM 33.1822 -98.8456 281° West 361 415 36,000  Level Fort Worth Center
Wed 06:21:55 PM 33.2058 -98.9628 284° West 367 422 36,000  Level Fort Worth Center
Wed 06:22:55 PM 33.2292 -99.0847 283° West 373 429 36,000  Level Fort Worth Center
Wed 06:23:55 PM 33.2483 -99.2044 281° West 373 429 36,000  Level Fort Worth Center
Wed 06:24:55 PM 33.2717 -99.3292 283° West 373 429 36,000  Level Fort Worth Center
Wed 06:25:55 PM 33.2928 -99.4514 282° West 378 435 36,000  Level Fort Worth Center
Wed 06:26:55 PM 33.3136 -99.5761 281° West 378 435 36,000  Level Fort Worth Center
Wed 06:27:55 PM 33.3342 -99.7008 281° West 383 441 36,000  Level Fort Worth Center
Wed 06:28:55 PM 33.3569 -99.8258 282° West 383 441 36,000  Level Fort Worth Center
Wed 06:29:55 PM 33.3775 -99.9483 281° West 383 441 36,000  Level Fort Worth Center
Wed 06:30:55 PM 33.3981 -100.0708 281° West 383 441 36,000 -250 Level Fort Worth Center
Wed 06:31:55 PM 33.4203 -100.1933 282° West 383 441 35,500 -2,000 Descending Fort Worth Center
Wed 06:32:55 PM 33.4383 -100.3183 280° West 383 441 32,000 -3,600 Descending Fort Worth Center
Wed 06:33:55 PM 33.4606 -100.4436 282° West 383 441 28,300 -3,300 Descending Fort Worth Center
Wed 06:34:55 PM 33.4803 -100.5664 281° West 383 441 25,400 -2,750 Descending Fort Worth Center
Wed 06:35:55 PM 33.4983 -100.6814 281° West 378 435 22,800 -3,188 Descending Fort Worth Center
Wed 06:37:03 PM 33.5194 -100.8294 280° West 357 411 18,600 -3,150 Descending Fort Worth Center
Wed 06:37:55 PM 33.5394 -100.9322 283° West 365 420 16,500 -2,557 Descending Fort Worth Center
Wed 06:39:05 PM 33.5586 -101.0650 280° West 337 388 13,400 -2,585 Descending Fort Worth Center
Wed 06:40:05 PM 33.5764 -101.1706 281° West 329 379 10,900 -1,785 Descending Fort Worth Center
Wed 06:41:06 PM 33.5858 -101.2708 276° West 294 338 9,800 -1,180 Descending Fort Worth Center
Wed 06:42:07 PM 33.5811 -101.3578 266° West 286 329 8,500 -1,636 Descending Fort Worth Center
Wed 06:43:07 PM 33.5719 -101.4447 263° West 256 295 6,500 -1,250 Descending Fort Worth Center
Wed 06:44:07 PM 33.5669 -101.5342 266° West 267 307 6,000 -261 Descending Fort Worth Center
Wed 06:45:02 PM 33.5561 -101.6158 261° West 269 310 6,000 -250 Level Fort Worth Center
Wed 06:46:07 PM 33.5592 -101.7058 272° West 264 304 5,500 -545 Descending Fort Worth Center
Wed 06:47:03 PM 33.5694 -101.7686 281° West 207 238 4,900 -513 Descending Fort Worth Center
Wed 06:48:04 PM 33.5925 -101.8269 295° West 179 206 4,500 -639 Descending Fort Worth Center
Wed 06:49:05 PM 33.6342 -101.8317 355° North 115 132 3,600 -634 Descending Fort Worth Center
Wed 06:50:07 PM 33.6669 -101.8458 340° North 118 136 3,200 -387 Descending Fort Worth Center

Login

Don't have an account? Register now (free) for customized features, flight alerts, and more!